Terminal Aerodrome Forecast
Issued by NWS Louisville, KY

Home | Current Version | Previous Version | Text Only | Print | Product List | Glossary On
Versions: 1 2 3 4 5 6 7 8 9 10 11 12 13 14 15 16 17 18 19 20
000
FTUS43 KLMK 270200 AAC
TAFSDF
TAF AMD
KSDF 270240Z 2703/2806 30015KT 1SM +TSRA BKN025CB
     FM270300 34008KT P6SM -TSRA BKN040CB
     FM270530 21007KT P6SM BKN040 OVC100
     FM271500 27016G24KT P6SM BKN050
     FM280100 29010KT P6SM BKN050=

USA.gov is the U.S. government's official web portal to all federal, state and local government web resources and services.